sensor_id;sensor_type;location;lat;lon;timestamp;temperature;humidity
10175;DHT22;18221;38.704;0.152;2023-08-21T00:12:17;25.90;99.90
10175;DHT22;18221;38.704;0.152;2023-08-21T00:14:45;26.00;99.90
10175;DHT22;18221;38.704;0.152;2023-08-21T00:17:13;26.10;99.90
10175;DHT22;18221;38.704;0.152;2023-08-21T00:19:41;26.10;99.90
10175;DHT22;18221;38.704;0.152;2023-08-21T00:22:09;26.00;99.90
10175;DHT22;18221;38.704;0.152;2023-08-21T00:24:38;26.10;99.90
10175;DHT22;18221;38.704;0.152;2023-08-21T00:27:06;26.10;99.90
10175;DHT22;18221;38.704;0.152;2023-08-21T00:29:35;26.10;99.90
10175;DHT22;18221;38.704;0.152;2023-08-21T00:32:03;26.10;99.90
10175;DHT22;18221;38.704;0.152;2023-08-21T00:34:32;26.10;99.90
10175;DHT22;18221;38.704;0.152;2023-08-21T00:37:00;26.00;99.90
10175;DHT22;18221;38.704;0.152;2023-08-21T00:39:28;26.00;99.90
10175;DHT22;18221;38.704;0.152;2023-08-21T00:41:56;26.00;99.90
10175;DHT22;18221;38.704;0.152;2023-08-21T00:44:25;26.10;99.90
10175;DHT22;18221;38.704;0.152;2023-08-21T00:46:55;26.00;99.90
10175;DHT22;18221;38.704;0.152;2023-08-21T00:49:23;26.00;99.90
10175;DHT22;18221;38.704;0.152;2023-08-21T00:51:52;26.20;99.90
10175;DHT22;18221;38.704;0.152;2023-08-21T00:54:21;26.00;99.90
10175;DHT22;18221;38.704;0.152;2023-08-21T00:56:49;25.90;99.90
10175;DHT22;18221;38.704;0.152;2023-08-21T00:59:18;25.90;99.90
10175;DHT22;18221;38.704;0.152;2023-08-21T01:01:46;26.00;99.90
10175;DHT22;18221;38.704;0.152;2023-08-21T01:04:16;25.90;99.90
10175;DHT22;18221;38.704;0.152;2023-08-21T01:06:44;25.90;99.90
10175;DHT22;18221;38.704;0.152;2023-08-21T01:09:18;25.90;99.90
10175;DHT22;18221;38.704;0.152;2023-08-21T01:12:01;25.90;99.90
10175;DHT22;18221;38.704;0.152;2023-08-21T01:14:45;25.80;99.90
10175;DHT22;18221;38.704;0.152;2023-08-21T01:17:18;25.80;99.90
10175;DHT22;18221;38.704;0.152;2023-08-21T01:19:50;25.80;99.90
10175;DHT22;18221;38.704;0.152;2023-08-21T01:22:20;25.80;99.90
10175;DHT22;18221;38.704;0.152;2023-08-21T01:24:53;25.80;99.90
10175;DHT22;18221;38.704;0.152;2023-08-21T01:27:22;25.70;99.90
10175;DHT22;18221;38.704;0.152;2023-08-21T01:29:50;25.70;99.90
10175;DHT22;18221;38.704;0.152;2023-08-21T01:32:23;25.70;99.90
10175;DHT22;18221;38.704;0.152;2023-08-21T01:34:57;25.70;99.90
10175;DHT22;18221;38.704;0.152;2023-08-21T01:37:26;25.70;99.90
10175;DHT22;18221;38.704;0.152;2023-08-21T01:39:59;25.60;99.90
10175;DHT22;18221;38.704;0.152;2023-08-21T01:42:28;25.70;99.90
10175;DHT22;18221;38.704;0.152;2023-08-21T01:44:56;25.60;99.90
10175;DHT22;18221;38.704;0.152;2023-08-21T01:47:24;25.60;99.90
10175;DHT22;18221;38.704;0.152;2023-08-21T01:49:52;25.60;99.90
10175;DHT22;18221;38.704;0.152;2023-08-21T01:52:20;25.60;99.90
10175;DHT22;18221;38.704;0.152;2023-08-21T01:54:49;25.70;99.90
10175;DHT22;18221;38.704;0.152;2023-08-21T01:57:19;26.00;99.90
10175;DHT22;18221;38.704;0.152;2023-08-21T01:59:47;25.60;99.90
10175;DHT22;18221;38.704;0.152;2023-08-21T02:02:15;25.60;99.90
10175;DHT22;18221;38.704;0.152;2023-08-21T02:04:43;25.60;99.90
10175;DHT22;18221;38.704;0.152;2023-08-21T02:07:11;25.60;99.90
10175;DHT22;18221;38.704;0.152;2023-08-21T02:09:39;25.60;99.90
10175;DHT22;18221;38.704;0.152;2023-08-21T02:12:07;25.60;99.90
10175;DHT22;18221;38.704;0.152;2023-08-21T02:14:37;25.60;99.90
10175;DHT22;18221;38.704;0.152;2023-08-21T02:17:05;25.60;99.90
10175;DHT22;18221;38.704;0.152;2023-08-21T02:19:33;25.60;99.90
10175;DHT22;18221;38.704;0.152;2023-08-21T02:22:01;25.50;99.90
10175;DHT22;18221;38.704;0.152;2023-08-21T02:24:29;25.50;99.90
10175;DHT22;18221;38.704;0.152;2023-08-21T02:26:58;25.60;99.90
10175;DHT22;18221;38.704;0.152;2023-08-21T02:29:26;25.60;99.90
10175;DHT22;18221;38.704;0.152;2023-08-21T02:31:55;25.50;99.90
10175;DHT22;18221;38.704;0.152;2023-08-21T02:34:23;25.60;99.90
10175;DHT22;18221;38.704;0.152;2023-08-21T02:36:51;25.50;99.90
10175;DHT22;18221;38.704;0.152;2023-08-21T02:39:19;25.50;99.90
10175;DHT22;18221;38.704;0.152;2023-08-21T02:41:48;25.50;99.90
10175;DHT22;18221;38.704;0.152;2023-08-21T02:44:16;25.50;99.90
10175;DHT22;18221;38.704;0.152;2023-08-21T02:46:43;25.50;99.90
10175;DHT22;18221;38.704;0.152;2023-08-21T02:49:13;25.40;99.90
10175;DHT22;18221;38.704;0.152;2023-08-21T02:51:41;25.40;99.90
10175;DHT22;18221;38.704;0.152;2023-08-21T02:54:09;25.50;99.90
10175;DHT22;18221;38.704;0.152;2023-08-21T02:56:37;25.50;99.90
10175;DHT22;18221;38.704;0.152;2023-08-21T02:59:05;25.50;99.90
10175;DHT22;18221;38.704;0.152;2023-08-21T03:01:33;25.40;99.90
10175;DHT22;18221;38.704;0.152;2023-08-21T03:04:02;25.50;99.90
10175;DHT22;18221;38.704;0.152;2023-08-21T03:06:31;25.40;99.90
10175;DHT22;18221;38.704;0.152;2023-08-21T03:08:59;25.40;99.90
10175;DHT22;18221;38.704;0.152;2023-08-21T03:11:27;25.40;99.90
10175;DHT22;18221;38.704;0.152;2023-08-21T03:13:55;25.40;99.90
10175;DHT22;18221;38.704;0.152;2023-08-21T03:16:23;25.40;99.90
10175;DHT22;18221;38.704;0.152;2023-08-21T03:18:55;25.40;99.90
10175;DHT22;18221;38.704;0.152;2023-08-21T03:21:24;25.40;99.90
10175;DHT22;18221;38.704;0.152;2023-08-21T03:23:56;25.40;99.90
10175;DHT22;18221;38.704;0.152;2023-08-21T03:26:25;25.30;99.90
10175;DHT22;18221;38.704;0.152;2023-08-21T03:28:53;25.30;99.90
10175;DHT22;18221;38.704;0.152;2023-08-21T03:31:21;25.50;99.90
10175;DHT22;18221;38.704;0.152;2023-08-21T03:33:49;25.30;99.90
10175;DHT22;18221;38.704;0.152;2023-08-21T03:36:18;25.30;99.90
10175;DHT22;18221;38.704;0.152;2023-08-21T03:38:46;25.30;99.90
10175;DHT22;18221;38.704;0.152;2023-08-21T03:41:15;25.20;99.90
10175;DHT22;18221;38.704;0.152;2023-08-21T03:43:44;25.20;99.90
10175;DHT22;18221;38.704;0.152;2023-08-21T03:46:12;25.20;99.90
10175;DHT22;18221;38.704;0.152;2023-08-21T03:48:40;25.10;99.90
10175;DHT22;18221;38.704;0.152;2023-08-21T03:51:08;25.10;99.90
10175;DHT22;18221;38.704;0.152;2023-08-21T03:53:36;25.10;99.90
10175;DHT22;18221;38.704;0.152;2023-08-21T03:56:04;25.10;99.90
10175;DHT22;18221;38.704;0.152;2023-08-21T03:58:34;25.10;99.90
10175;DHT22;18221;38.704;0.152;2023-08-21T04:01:02;25.10;99.90
10175;DHT22;18221;38.704;0.152;2023-08-21T04:03:30;25.10;99.90
10175;DHT22;18221;38.704;0.152;2023-08-21T04:05:59;25.10;99.90
10175;DHT22;18221;38.704;0.152;2023-08-21T04:08:27;25.10;99.90
10175;DHT22;18221;38.704;0.152;2023-08-21T04:10:55;25.10;99.90
10175;DHT22;18221;38.704;0.152;2023-08-21T04:13:26;25.00;99.90
10175;DHT22;18221;38.704;0.152;2023-08-21T04:15:55;25.00;99.90
10175;DHT22;18221;38.704;0.152;2023-08-21T04:18:23;25.00;99.90
10175;DHT22;18221;38.704;0.152;2023-08-21T04:20:51;25.00;99.90
10175;DHT22;18221;38.704;0.152;2023-08-21T04:23:19;25.00;99.90
10175;DHT22;18221;38.704;0.152;2023-08-21T04:25:47;25.00;99.90
10175;DHT22;18221;38.704;0.152;2023-08-21T04:28:15;25.00;99.90
10175;DHT22;18221;38.704;0.152;2023-08-21T04:30:43;25.00;99.90
10175;DHT22;18221;38.704;0.152;2023-08-21T04:33:12;25.00;99.90
10175;DHT22;18221;38.704;0.152;2023-08-21T04:35:40;25.00;99.90
10175;DHT22;18221;38.704;0.152;2023-08-21T04:38:08;25.00;99.90
10175;DHT22;18221;38.704;0.152;2023-08-21T04:40:36;25.00;99.90
10175;DHT22;18221;38.704;0.152;2023-08-21T04:43:04;25.00;99.90
10175;DHT22;18221;38.704;0.152;2023-08-21T04:45:33;25.00;99.90
10175;DHT22;18221;38.704;0.152;2023-08-21T04:48:04;25.00;99.90
10175;DHT22;18221;38.704;0.152;2023-08-21T04:50:33;25.00;99.90
10175;DHT22;18221;38.704;0.152;2023-08-21T04:53:01;25.00;99.90
10175;DHT22;18221;38.704;0.152;2023-08-21T04:55:29;25.00;99.90
10175;DHT22;18221;38.704;0.152;2023-08-21T04:57:57;25.00;99.90
10175;DHT22;18221;38.704;0.152;2023-08-21T05:00:25;25.00;99.90
10175;DHT22;18221;38.704;0.152;2023-08-21T05:02:53;25.00;99.90
10175;DHT22;18221;38.704;0.152;2023-08-21T05:05:26;25.00;99.90
10175;DHT22;18221;38.704;0.152;2023-08-21T05:07:56;25.00;99.90
10175;DHT22;18221;38.704;0.152;2023-08-21T05:10:25;25.00;99.90
10175;DHT22;18221;38.704;0.152;2023-08-21T05:12:53;25.00;99.90
10175;DHT22;18221;38.704;0.152;2023-08-21T05:15:24;25.00;99.90
10175;DHT22;18221;38.704;0.152;2023-08-21T05:17:52;25.00;99.90
10175;DHT22;18221;38.704;0.152;2023-08-21T05:20:20;25.10;99.90
10175;DHT22;18221;38.704;0.152;2023-08-21T05:22:48;25.10;99.90
10175;DHT22;18221;38.704;0.152;2023-08-21T05:25:18;25.10;99.90
10175;DHT22;18221;38.704;0.152;2023-08-21T05:27:46;25.00;99.90
10175;DHT22;18221;38.704;0.152;2023-08-21T05:30:14;25.00;99.90
10175;DHT22;18221;38.704;0.152;2023-08-21T05:32:42;25.00;99.90
10175;DHT22;18221;38.704;0.152;2023-08-21T05:35:10;25.00;99.90
10175;DHT22;18221;38.704;0.152;2023-08-21T05:37:38;25.00;99.90
10175;DHT22;18221;38.704;0.152;2023-08-21T05:40:07;25.00;99.90
10175;DHT22;18221;38.704;0.152;2023-08-21T05:42:37;25.00;99.90
10175;DHT22;18221;38.704;0.152;2023-08-21T05:45:06;25.00;99.90
10175;DHT22;18221;38.704;0.152;2023-08-21T05:47:34;25.00;99.90
10175;DHT22;18221;38.704;0.152;2023-08-21T05:50:02;25.00;99.90
10175;DHT22;18221;38.704;0.152;2023-08-21T05:52:31;25.00;99.90
10175;DHT22;18221;38.704;0.152;2023-08-21T05:54:59;25.10;99.90
10175;DHT22;18221;38.704;0.152;2023-08-21T05:57:27;25.00;99.90
10175;DHT22;18221;38.704;0.152;2023-08-21T05:59:57;25.00;99.90
10175;DHT22;18221;38.704;0.152;2023-08-21T06:02:25;25.00;99.90
10175;DHT22;18221;38.704;0.152;2023-08-21T06:04:53;25.00;99.90
10175;DHT22;18221;38.704;0.152;2023-08-21T06:07:21;25.00;99.90
10175;DHT22;18221;38.704;0.152;2023-08-21T06:09:49;25.00;99.90
10175;DHT22;18221;38.704;0.152;2023-08-21T06:12:18;25.10;99.90
10175;DHT22;18221;38.704;0.152;2023-08-21T06:14:46;25.10;99.90
10175;DHT22;18221;38.704;0.152;2023-08-21T06:17:15;25.00;99.90
10175;DHT22;18221;38.704;0.152;2023-08-21T06:19:44;25.10;99.90
10175;DHT22;18221;38.704;0.152;2023-08-21T06:22:12;25.10;99.90
10175;DHT22;18221;38.704;0.152;2023-08-21T06:24:41;25.10;99.90
10175;DHT22;18221;38.704;0.152;2023-08-21T06:27:09;25.10;99.90
10175;DHT22;18221;38.704;0.152;2023-08-21T06:29:37;25.10;99.90
10175;DHT22;18221;38.704;0.152;2023-08-21T06:32:06;25.10;99.90
10175;DHT22;18221;38.704;0.152;2023-08-21T06:34:35;25.10;99.90
10175;DHT22;18221;38.704;0.152;2023-08-21T06:37:04;25.20;99.90
10175;DHT22;18221;38.704;0.152;2023-08-21T06:39:33;25.20;99.90
10175;DHT22;18221;38.704;0.152;2023-08-21T06:42:01;25.20;99.90
10175;DHT22;18221;38.704;0.152;2023-08-21T06:44:29;25.30;99.90
10175;DHT22;18221;38.704;0.152;2023-08-21T06:46:58;25.30;99.90
10175;DHT22;18221;38.704;0.152;2023-08-21T06:49:26;25.40;99.90
10175;DHT22;18221;38.704;0.152;2023-08-21T06:51:55;25.40;99.90
10175;DHT22;18221;38.704;0.152;2023-08-21T06:54:23;25.40;99.90
10175;DHT22;18221;38.704;0.152;2023-08-21T06:56:51;25.50;99.90
10175;DHT22;18221;38.704;0.152;2023-08-21T06:59:21;25.50;99.90
10175;DHT22;18221;38.704;0.152;2023-08-21T07:01:49;25.60;99.90
10175;DHT22;18221;38.704;0.152;2023-08-21T07:04:17;25.60;99.90
10175;DHT22;18221;38.704;0.152;2023-08-21T07:06:45;25.70;99.90
10175;DHT22;18221;38.704;0.152;2023-08-21T07:09:14;25.80;99.90
10175;DHT22;18221;38.704;0.152;2023-08-21T07:11:42;25.90;99.90
10175;DHT22;18221;38.704;0.152;2023-08-21T07:14:10;25.90;99.90
10175;DHT22;18221;38.704;0.152;2023-08-21T07:16:39;26.00;99.90
10175;DHT22;18221;38.704;0.152;2023-08-21T07:19:07;26.00;99.90
10175;DHT22;18221;38.704;0.152;2023-08-21T07:21:36;26.10;99.90
10175;DHT22;18221;38.704;0.152;2023-08-21T07:24:04;26.10;99.90
10175;DHT22;18221;38.704;0.152;2023-08-21T07:26:34;26.20;99.90
10175;DHT22;18221;38.704;0.152;2023-08-21T07:29:04;26.30;99.90
10175;DHT22;18221;38.704;0.152;2023-08-21T07:31:33;26.40;99.90
10175;DHT22;18221;38.704;0.152;2023-08-21T07:34:01;26.50;99.90
10175;DHT22;18221;38.704;0.152;2023-08-21T07:36:31;26.60;99.90
10175;DHT22;18221;38.704;0.152;2023-08-21T07:38:59;26.70;99.90
10175;DHT22;18221;38.704;0.152;2023-08-21T07:41:27;26.80;99.90
10175;DHT22;18221;38.704;0.152;2023-08-21T07:43:57;27.00;99.90
10175;DHT22;18221;38.704;0.152;2023-08-21T07:46:25;27.20;99.90
10175;DHT22;18221;38.704;0.152;2023-08-21T07:48:55;27.50;99.90
10175;DHT22;18221;38.704;0.152;2023-08-21T07:51:23;27.70;99.90
10175;DHT22;18221;38.704;0.152;2023-08-21T07:53:51;27.90;99.90
10175;DHT22;18221;38.704;0.152;2023-08-21T07:56:19;28.10;99.90
10175;DHT22;18221;38.704;0.152;2023-08-21T07:58:47;28.30;99.90
10175;DHT22;18221;38.704;0.152;2023-08-21T08:01:17;28.40;99.90
10175;DHT22;18221;38.704;0.152;2023-08-21T08:03:46;28.50;99.90
10175;DHT22;18221;38.704;0.152;2023-08-21T08:06:15;28.50;99.90
10175;DHT22;18221;38.704;0.152;2023-08-21T08:08:44;28.40;99.90
10175;DHT22;18221;38.704;0.152;2023-08-21T08:11:12;28.40;99.90
10175;DHT22;18221;38.704;0.152;2023-08-21T08:13:40;28.20;99.90
10175;DHT22;18221;38.704;0.152;2023-08-21T08:16:08;28.10;99.90
10175;DHT22;18221;38.704;0.152;2023-08-21T08:18:38;28.00;99.90
10175;DHT22;18221;38.704;0.152;2023-08-21T08:21:05;27.90;99.90
10175;DHT22;18221;38.704;0.152;2023-08-21T08:23:33;27.90;99.90
10175;DHT22;18221;38.704;0.152;2023-08-21T08:26:01;27.90;99.90
10175;DHT22;18221;38.704;0.152;2023-08-21T08:28:35;27.90;99.90
10175;DHT22;18221;38.704;0.152;2023-08-21T08:31:03;27.90;99.90
10175;DHT22;18221;38.704;0.152;2023-08-21T08:33:31;28.00;99.90
10175;DHT22;18221;38.704;0.152;2023-08-21T08:36:01;28.00;99.90
10175;DHT22;18221;38.704;0.152;2023-08-21T08:38:29;28.00;99.90
10175;DHT22;18221;38.704;0.152;2023-08-21T08:40:57;28.10;99.90
10175;DHT22;18221;38.704;0.152;2023-08-21T08:43:25;28.30;99.90
10175;DHT22;18221;38.704;0.152;2023-08-21T08:45:57;28.20;99.90
10175;DHT22;18221;38.704;0.152;2023-08-21T08:48:27;28.20;99.90
10175;DHT22;18221;38.704;0.152;2023-08-21T08:50:55;28.30;99.90
10175;DHT22;18221;38.704;0.152;2023-08-21T08:53:25;28.30;99.90
10175;DHT22;18221;38.704;0.152;2023-08-21T08:55:55;28.20;99.90
10175;DHT22;18221;38.704;0.152;2023-08-21T08:58:24;28.30;99.90
10175;DHT22;18221;38.704;0.152;2023-08-21T09:00:52;28.30;99.90
10175;DHT22;18221;38.704;0.152;2023-08-21T09:03:20;28.50;99.90
10175;DHT22;18221;38.704;0.152;2023-08-21T09:05:48;28.50;99.90
10175;DHT22;18221;38.704;0.152;2023-08-21T09:08:16;28.50;99.90
10175;DHT22;18221;38.704;0.152;2023-08-21T09:10:46;28.50;99.90
10175;DHT22;18221;38.704;0.152;2023-08-21T09:13:14;28.50;99.90
10175;DHT22;18221;38.704;0.152;2023-08-21T09:15:45;28.60;99.90
10175;DHT22;18221;38.704;0.152;2023-08-21T09:18:15;28.70;99.90
10175;DHT22;18221;38.704;0.152;2023-08-21T09:20:43;28.70;99.90
10175;DHT22;18221;38.704;0.152;2023-08-21T09:23:14;28.70;99.90
10175;DHT22;18221;38.704;0.152;2023-08-21T09:25:46;28.70;99.90
10175;DHT22;18221;38.704;0.152;2023-08-21T09:28:18;28.80;99.90
10175;DHT22;18221;38.704;0.152;2023-08-21T09:30:48;28.80;99.90
10175;DHT22;18221;38.704;0.152;2023-08-21T09:33:20;28.70;99.90
10175;DHT22;18221;38.704;0.152;2023-08-21T09:35:51;28.80;99.90
10175;DHT22;18221;38.704;0.152;2023-08-21T09:38:22;28.90;99.90
10175;DHT22;18221;38.704;0.152;2023-08-21T09:40:55;28.90;99.90
10175;DHT22;18221;38.704;0.152;2023-08-21T09:43:26;29.00;99.90
10175;DHT22;18221;38.704;0.152;2023-08-21T09:45:55;28.90;99.90
10175;DHT22;18221;38.704;0.152;2023-08-21T09:48:24;28.90;99.90
10175;DHT22;18221;38.704;0.152;2023-08-21T09:50:54;28.90;99.90
10175;DHT22;18221;38.704;0.152;2023-08-21T09:53:23;29.00;99.90
10175;DHT22;18221;38.704;0.152;2023-08-21T09:55:54;29.00;99.90
10175;DHT22;18221;38.704;0.152;2023-08-21T09:58:23;29.00;99.90
10175;DHT22;18221;38.704;0.152;2023-08-21T10:00:52;29.00;99.90
10175;DHT22;18221;38.704;0.152;2023-08-21T10:03:24;28.90;99.90
10175;DHT22;18221;38.704;0.152;2023-08-21T10:05:55;28.90;99.90
10175;DHT22;18221;38.704;0.152;2023-08-21T10:08:26;29.10;99.90
10175;DHT22;18221;38.704;0.152;2023-08-21T10:10:58;29.00;99.90
10175;DHT22;18221;38.704;0.152;2023-08-21T10:13:26;29.00;99.90
10175;DHT22;18221;38.704;0.152;2023-08-21T10:15:55;29.00;99.90
10175;DHT22;18221;38.704;0.152;2023-08-21T10:18:24;29.10;99.90
10175;DHT22;18221;38.704;0.152;2023-08-21T10:20:56;29.10;99.90
10175;DHT22;18221;38.704;0.152;2023-08-21T10:23:38;29.10;99.90
10175;DHT22;18221;38.704;0.152;2023-08-21T10:26:10;29.20;99.90
10175;DHT22;18221;38.704;0.152;2023-08-21T10:28:59;29.20;99.90
10175;DHT22;18221;38.704;0.152;2023-08-21T10:31:33;29.20;99.90
10175;DHT22;18221;38.704;0.152;2023-08-21T10:34:02;29.30;99.90
10175;DHT22;18221;38.704;0.152;2023-08-21T10:37:04;29.30;99.90
10175;DHT22;18221;38.704;0.152;2023-08-21T10:39:36;29.30;99.90
10175;DHT22;18221;38.704;0.152;2023-08-21T10:42:08;29.30;99.90
10175;DHT22;18221;38.704;0.152;2023-08-21T10:44:52;29.30;99.90
10175;DHT22;18221;38.704;0.152;2023-08-21T10:47:31;29.30;99.90
10175;DHT22;18221;38.704;0.152;2023-08-21T10:50:03;29.30;99.90
10175;DHT22;18221;38.704;0.152;2023-08-21T10:52:36;29.30;99.90
10175;DHT22;18221;38.704;0.152;2023-08-21T10:55:08;29.30;99.90
10175;DHT22;18221;38.704;0.152;2023-08-21T10:57:39;29.40;99.90
10175;DHT22;18221;38.704;0.152;2023-08-21T11:00:09;29.40;99.90
10175;DHT22;18221;38.704;0.152;2023-08-21T11:02:39;29.50;99.90
10175;DHT22;18221;38.704;0.152;2023-08-21T11:05:10;29.50;99.90
10175;DHT22;18221;38.704;0.152;2023-08-21T11:07:39;29.50;99.90
10175;DHT22;18221;38.704;0.152;2023-08-21T11:10:11;29.50;99.90
10175;DHT22;18221;38.704;0.152;2023-08-21T11:12:52;29.60;99.90
10175;DHT22;18221;38.704;0.152;2023-08-21T11:15:23;29.60;99.90
10175;DHT22;18221;38.704;0.152;2023-08-21T11:17:54;29.70;99.90
10175;DHT22;18221;38.704;0.152;2023-08-21T11:20:27;29.80;99.90
10175;DHT22;18221;38.704;0.152;2023-08-21T11:22:57;29.90;99.90
10175;DHT22;18221;38.704;0.152;2023-08-21T11:25:26;29.90;99.90
10175;DHT22;18221;38.704;0.152;2023-08-21T11:27:56;29.90;99.90
10175;DHT22;18221;38.704;0.152;2023-08-21T11:30:25;30.00;99.90
10175;DHT22;18221;38.704;0.152;2023-08-21T11:33:05;30.10;99.90
10175;DHT22;18221;38.704;0.152;2023-08-21T11:35:34;30.10;99.90
10175;DHT22;18221;38.704;0.152;2023-08-21T11:38:03;30.10;99.90
10175;DHT22;18221;38.704;0.152;2023-08-21T11:40:34;30.20;99.90
10175;DHT22;18221;38.704;0.152;2023-08-21T11:43:04;30.20;99.90
10175;DHT22;18221;38.704;0.152;2023-08-21T11:45:33;30.20;99.90
10175;DHT22;18221;38.704;0.152;2023-08-21T11:48:01;30.40;99.90
10175;DHT22;18221;38.704;0.152;2023-08-21T11:50:30;30.40;99.90
10175;DHT22;18221;38.704;0.152;2023-08-21T11:52:58;30.40;99.90
10175;DHT22;18221;38.704;0.152;2023-08-21T11:55:26;30.50;99.90
10175;DHT22;18221;38.704;0.152;2023-08-21T11:57:54;30.40;99.90
10175;DHT22;18221;38.704;0.152;2023-08-21T12:00:28;30.30;99.90
10175;DHT22;18221;38.704;0.152;2023-08-21T12:02:58;30.30;99.90
10175;DHT22;18221;38.704;0.152;2023-08-21T12:05:29;30.40;99.90
10175;DHT22;18221;38.704;0.152;2023-08-21T12:07:57;30.40;99.90
10175;DHT22;18221;38.704;0.152;2023-08-21T12:10:25;30.40;99.90
10175;DHT22;18221;38.704;0.152;2023-08-21T12:12:55;30.30;99.90
10175;DHT22;18221;38.704;0.152;2023-08-21T12:15:23;30.40;99.90
10175;DHT22;18221;38.704;0.152;2023-08-21T12:17:52;30.40;99.90
10175;DHT22;18221;38.704;0.152;2023-08-21T12:20:21;30.50;99.90
10175;DHT22;18221;38.704;0.152;2023-08-21T12:22:49;30.50;99.90
10175;DHT22;18221;38.704;0.152;2023-08-21T12:25:17;30.50;99.90
10175;DHT22;18221;38.704;0.152;2023-08-21T12:27:45;30.50;99.90
10175;DHT22;18221;38.704;0.152;2023-08-21T12:30:14;30.60;99.90
10175;DHT22;18221;38.704;0.152;2023-08-21T12:32:42;30.60;99.90
10175;DHT22;18221;38.704;0.152;2023-08-21T12:35:11;30.70;99.90
10175;DHT22;18221;38.704;0.152;2023-08-21T12:37:39;30.50;99.90
10175;DHT22;18221;38.704;0.152;2023-08-21T12:40:08;30.50;99.90
10175;DHT22;18221;38.704;0.152;2023-08-21T12:42:36;30.50;99.90
10175;DHT22;18221;38.704;0.152;2023-08-21T12:45:05;30.40;99.90
10175;DHT22;18221;38.704;0.152;2023-08-21T12:47:34;30.50;99.90
10175;DHT22;18221;38.704;0.152;2023-08-21T12:50:02;30.50;99.90
10175;DHT22;18221;38.704;0.152;2023-08-21T12:52:32;30.50;99.90
10175;DHT22;18221;38.704;0.152;2023-08-21T12:55:00;30.40;99.90
10175;DHT22;18221;38.704;0.152;2023-08-21T12:57:30;30.40;99.90
10175;DHT22;18221;38.704;0.152;2023-08-21T12:59:58;30.40;99.90
10175;DHT22;18221;38.704;0.152;2023-08-21T13:02:26;30.40;99.90
10175;DHT22;18221;38.704;0.152;2023-08-21T13:04:54;30.40;99.90
10175;DHT22;18221;38.704;0.152;2023-08-21T13:07:22;30.50;99.90
10175;DHT22;18221;38.704;0.152;2023-08-21T13:09:52;30.50;99.90
10175;DHT22;18221;38.704;0.152;2023-08-21T13:12:20;30.60;99.90
10175;DHT22;18221;38.704;0.152;2023-08-21T13:14:48;30.60;99.90
10175;DHT22;18221;38.704;0.152;2023-08-21T13:17:16;30.70;99.90
10175;DHT22;18221;38.704;0.152;2023-08-21T13:19:44;30.70;99.90
10175;DHT22;18221;38.704;0.152;2023-08-21T13:22:12;30.70;99.90
10175;DHT22;18221;38.704;0.152;2023-08-21T13:24:40;30.70;99.90
10175;DHT22;18221;38.704;0.152;2023-08-21T13:27:09;30.80;99.90
10175;DHT22;18221;38.704;0.152;2023-08-21T13:29:37;30.80;99.90
10175;DHT22;18221;38.704;0.152;2023-08-21T13:32:06;30.80;99.90
10175;DHT22;18221;38.704;0.152;2023-08-21T13:34:34;30.90;99.90
10175;DHT22;18221;38.704;0.152;2023-08-21T13:37:05;30.90;99.90
10175;DHT22;18221;38.704;0.152;2023-08-21T13:39:35;31.00;99.90
10175;DHT22;18221;38.704;0.152;2023-08-21T13:42:04;31.00;99.90
10175;DHT22;18221;38.704;0.152;2023-08-21T13:44:34;31.00;99.90
10175;DHT22;18221;38.704;0.152;2023-08-21T13:47:02;31.10;99.90
10175;DHT22;18221;38.704;0.152;2023-08-21T13:49:30;31.10;99.90
10175;DHT22;18221;38.704;0.152;2023-08-21T13:51:58;31.00;99.90
10175;DHT22;18221;38.704;0.152;2023-08-21T13:54:26;31.00;99.90
10175;DHT22;18221;38.704;0.152;2023-08-21T13:56:54;31.00;99.90
10175;DHT22;18221;38.704;0.152;2023-08-21T13:59:22;31.00;99.90
10175;DHT22;18221;38.704;0.152;2023-08-21T14:01:51;30.90;99.90
10175;DHT22;18221;38.704;0.152;2023-08-21T14:04:19;31.10;99.90
10175;DHT22;18221;38.704;0.152;2023-08-21T14:06:47;31.10;99.90
10175;DHT22;18221;38.704;0.152;2023-08-21T14:09:15;31.20;99.90
10175;DHT22;18221;38.704;0.152;2023-08-21T14:11:43;31.20;99.90
10175;DHT22;18221;38.704;0.152;2023-08-21T14:14:11;31.20;99.90
10175;DHT22;18221;38.704;0.152;2023-08-21T14:16:39;31.30;99.90
10175;DHT22;18221;38.704;0.152;2023-08-21T14:19:08;31.50;99.90
10175;DHT22;18221;38.704;0.152;2023-08-21T14:21:36;31.60;99.90
10175;DHT22;18221;38.704;0.152;2023-08-21T14:24:04;31.60;99.90
10175;DHT22;18221;38.704;0.152;2023-08-21T14:26:34;31.70;99.90
10175;DHT22;18221;38.704;0.152;2023-08-21T14:29:02;31.80;99.90
10175;DHT22;18221;38.704;0.152;2023-08-21T14:31:35;31.70;99.90
10175;DHT22;18221;38.704;0.152;2023-08-21T14:34:03;31.70;99.90
10175;DHT22;18221;38.704;0.152;2023-08-21T14:36:33;31.70;99.90
10175;DHT22;18221;38.704;0.152;2023-08-21T14:39:01;31.60;99.90
10175;DHT22;18221;38.704;0.152;2023-08-21T14:41:30;31.50;99.90
10175;DHT22;18221;38.704;0.152;2023-08-21T14:43:58;31.50;99.90
10175;DHT22;18221;38.704;0.152;2023-08-21T14:46:26;31.60;99.90
10175;DHT22;18221;38.704;0.152;2023-08-21T14:48:54;31.60;99.90
10175;DHT22;18221;38.704;0.152;2023-08-21T14:51:25;31.50;99.90
10175;DHT22;18221;38.704;0.152;2023-08-21T14:53:54;31.50;99.90
10175;DHT22;18221;38.704;0.152;2023-08-21T14:56:22;31.60;99.90
10175;DHT22;18221;38.704;0.152;2023-08-21T14:58:50;31.50;99.90
10175;DHT22;18221;38.704;0.152;2023-08-21T15:01:18;31.40;99.90
10175;DHT22;18221;38.704;0.152;2023-08-21T15:03:46;31.40;99.90
10175;DHT22;18221;38.704;0.152;2023-08-21T15:06:17;31.30;99.90
10175;DHT22;18221;38.704;0.152;2023-08-21T15:08:45;31.20;99.90
10175;DHT22;18221;38.704;0.152;2023-08-21T15:11:15;31.20;99.90
10175;DHT22;18221;38.704;0.152;2023-08-21T15:13:43;31.20;99.90
10175;DHT22;18221;38.704;0.152;2023-08-21T15:16:11;31.10;99.90
10175;DHT22;18221;38.704;0.152;2023-08-21T15:18:39;31.20;99.90
10175;DHT22;18221;38.704;0.152;2023-08-21T15:21:06;31.20;99.90
10175;DHT22;18221;38.704;0.152;2023-08-21T15:23:34;31.30;99.90
10175;DHT22;18221;38.704;0.152;2023-08-21T15:26:02;31.30;99.90
10175;DHT22;18221;38.704;0.152;2023-08-21T15:28:32;31.30;99.90
10175;DHT22;18221;38.704;0.152;2023-08-21T15:31:00;31.30;99.90
10175;DHT22;18221;38.704;0.152;2023-08-21T15:33:29;31.30;99.90
10175;DHT22;18221;38.704;0.152;2023-08-21T15:35:57;31.30;99.90
10175;DHT22;18221;38.704;0.152;2023-08-21T15:38:25;31.30;99.90
10175;DHT22;18221;38.704;0.152;2023-08-21T15:40:53;31.30;99.90
10175;DHT22;18221;38.704;0.152;2023-08-21T15:43:21;31.30;99.90
10175;DHT22;18221;38.704;0.152;2023-08-21T15:45:51;31.30;99.90
10175;DHT22;18221;38.704;0.152;2023-08-21T15:48:19;31.30;99.90
10175;DHT22;18221;38.704;0.152;2023-08-21T15:50:47;31.30;99.90
10175;DHT22;18221;38.704;0.152;2023-08-21T15:53:15;31.30;99.90